x

Western Hawaii - 205 Nm Sw Of Honolulu, Hi (51003) Wave Buoy

10:50pm - Wed 6th May 2015 All times are HST. -10 hours from GMT.

  • Sig Wave height 6.2ft
  • Peak Period 9s
  • Average Period 6s
  • Wind
    16mph, 20mph gusts
  • Sea Temp 79°f
  • Air Temp 77°f
  • Sea Pressure 1016.5mb
  • Western  Hawaii - 205 Nm Sw Of Honolulu, Hi
  • Western  Hawaii - 205 Nm Sw Of Honolulu, Hi

More Historic Weather Station data

Upgrade to MSW Pro to gain access to the past 30 days of data for over 8000 Wavebouys and Weather Stations around the globe.

Join Pro

Comparision Forecast

View Surf forecast
   
Wed 05/06 10:50pm 6ft 9s 6s 16 20 mph 1016.5mb 79f 77f
9:50pm 7ft 8s 6s 18 22 mph 1016.1mb 79f 78f
8:50pm 7ft 8s 6s 18 20 mph 1015.6mb 79f 78f
7:50pm 7ft 9s 6s 18 20 mph 1014.9mb 79f 78f
6:50pm 7ft 8s 6s 18 20 mph 1014.2mb 79f 78f
5:50pm 7ft 8s 6s 16 20 mph 1013.6mb 79f 78f
4:50pm 7.5ft 8s 6s 16 18 mph 1013.7mb 79f 78f
3:50pm 7.5ft 8s 6s 16 18 mph 1013.9mb 79f 78f
2:50pm 7.5ft 7s 6s 16 20 mph 1014.1mb 79f 78f
1:50pm 7ft 8s 6s 16 18 mph 1014.8mb 79f 78f
12:50pm 7ft 8s 6s 11 13 mph 1015.6mb 79f 77f
11:50am 7ft 8s 7s 16 20 mph 1016mb 79f 76f
10:50am 7ft 16s 7s 13 18 mph 1016.2mb 79f 77f
9:50am 7ft 8s 7s 13 16 mph 1016.3mb 79f 77f
8:50am 7.5ft 8s 7s 13 16 mph 1016.1mb 79f 77f
7:50am 7ft 8s 6s 13 16 mph 1016mb 79f 77f
6:50am 7ft 8s 6s 13 16 mph 1015.6mb 79f 76f
5:50am 7.5ft 8s 6s 13 18 mph 1015.1mb 79f 77f
4:50am 7ft 8s 6s 16 25 mph 1015.1mb 79f 77f
3:50am 7ft 8s 6s 13 18 mph 1015mb 79f 77f
2:50am 7ft 9s 6s 16 18 mph 1015.4mb 79f 76f
1:50am 7ft 8s 6s 18 20 mph 1015.7mb 79f 77f
12:50am 7ft 8s 6s 16 20 mph 1016.7mb 79f 77f
Tue 05/05 11:50pm 8ft 8s 6s 18 20 mph 1017.2mb 79f 78f
10:50pm 8.5ft 8s 7s 18 22 mph 1017.3mb 79f 78f
9:50pm 8ft 8s 6s 18 22 mph 1017.6mb 79f 78f
8:50pm 7ft 8s 6s 18 20 mph 1017.1mb 79f 78f
7:50pm 7ft 8s 6s 16 20 mph 1016.6mb 79f 78f
6:50pm 7.5ft 8s 7s 13 18 mph 1016.1mb 79f 78f
5:50pm 8ft 8s 7s 16 18 mph 1015.3mb 79f 77f
4:50pm 7.5ft 8s 6s 13 16 mph 1015.1mb 79f 78f
3:50pm 7.5ft 8s 7s 13 16 mph 1015.2mb 79f 78f
2:50pm 8ft 8s 6s 13 18 mph 1015.8mb 79f 78f
1:50pm 8ft 8s 7s 11 13 mph 1016.7mb 79f 78f
12:50pm 8ft 8s 7s 11 13 mph 1016.8mb 79f 78f
11:50am 8ft 8s 7s 16 18 mph 1017.3mb 79f 78f
10:50am 8ft 8s 6s 16 20 mph 1017.1mb 79f 78f
9:50am 7ft 8s 6s 18 22 mph 1017.1mb 79f 78f
8:50am 7ft 9s 6s 18 22 mph 1016.8mb 79f 78f
7:50am 7ft 7s 6s 20 22 mph 1016.3mb 79f 78f
6:50am 6.5ft 9s 6s 20 22 mph 1015.8mb 79f 78f
5:50am 7ft 8s 6s 20 22 mph 1015.1mb 79f 78f
4:50am 7ft 8s 6s 18 22 mph 1014.8mb 79f 78f
3:50am 7ft 8s 6s 13 16 mph 1015mb 79f 75f
2:50am 6.5ft 7s 6s 13 18 mph 1015mb 79f 77f
1:50am 7ft 8s 6s 16 20 mph 1015.3mb 79f 78f
12:50am 6.5ft 8s 6s 18 20 mph 1016mb 79f 78f
Mon 05/04 11:50pm 6.5ft 7s 6s 18 20 mph 1016.5mb 79f 78f
10:50pm 6.5ft 8s 6s 16 18 mph 1016.8mb 79f 78f
9:50pm 6.5ft 8s 6s 16 20 mph 1016.2mb 79f 77f
8:50pm 7ft 8s 6s 18 22 mph 1015.6mb 79f 78f
7:50pm 6ft 7s 6s 18 22 mph 1015.3mb 79f 77f
6:50pm 6.5ft 8s 6s 18 22 mph 1014.7mb 79f 77f
5:50pm 6ft 8s 6s 20 22 mph 1014.2mb 79f 78f
4:50pm 6ft 8s 6s 18 20 mph 1014mb 79f 78f
3:50pm 7ft 7s 6s 11 13 mph 1014.4mb 79f 76f
2:50pm 6.5ft 8s 6s 13 16 mph 1014.8mb 79f 77f
1:50pm 7ft 8s 6s 13 18 mph 1015.5mb 79f 77f
12:50pm 6ft 8s 6s 13 16 mph 1016mb 79f 76f
11:50am 6ft 7s 6s 11 16 mph 1016.7mb 79f 78f
10:50am 7ft 7s 6s 11 13 mph 1016.9mb 79f 78f
9:50am 6ft 7s 6s 16 18 mph 1017.1mb 79f 77f
8:50am 6ft 7s 6s 20 22 mph 1016.5mb 79f 75f
7:50am 6ft 7s 6s 11 13 mph 1016.2mb 79f 77f
6:50am 6ft 8s 6s 11 13 mph 1015.6mb 79f 76f
5:50am 6ft 8s 6s 11 13 mph 1014.9mb 79f 76f
4:50am 7ft 8s 6s 11 13 mph 1014.5mb 79f 76f
3:50am 6.5ft 8s 6s 13 16 mph 1014.6mb 79f 76f
2:50am 6.5ft 7s 6s 13 16 mph 1014.7mb 79f 77f
1:50am 7ft 8s 6s 13 18 mph 1015.2mb 79f 77f
12:50am 6ft 7s 6s 13 18 mph 1015.7mb 79f 77f
Sun 05/03 11:50pm 6ft 8s 6s 16 20 mph 1016.1mb 79f 77f
10:50pm 6ft 7s 6s 16 20 mph 1016.2mb 79f 77f
9:50pm 6.5ft 9s 6s 16 20 mph 1015.9mb 79f 76f
8:50pm 6.5ft 8s 6s 16 20 mph 1015.3mb 79f 77f
7:50pm 6ft 8s 6s 16 18 mph 1014.7mb 79f 77f
6:50pm 6.5ft 8s 6s 16 18 mph 1014.2mb 79f 77f
5:50pm 6.5ft 8s 6s 16 18 mph 1013.7mb 79f 77f
4:50pm 6.5ft 8s 6s 16 20 mph 1013.4mb 79f 76f
3:50pm 7ft 8s  -  18 20 mph 1013.2mb 79f 77f
2:50pm 7ft 9s 6s 18 20 mph 1013.8mb 79f 77f
1:50pm 7.5ft 8s 6s 18 20 mph 1014.9mb 79f 75f
12:50pm 7ft 8s 6s 16 18 mph 1015.6mb 79f 76f
11:50am 7ft 8s 6s 13 20 mph 1016.1mb 79f 77f
10:50am 8ft 8s 6s 13 18 mph 1016.5mb 79f 77f
9:50am 7ft 8s 6s 18 20 mph 1016.4mb 79f 78f